createdAt,value
2019-03-19T00:00:50.334Z,98195.83
2019-03-19T00:03:20.067Z,98197.00
2019-03-19T00:05:50.336Z,98197.86
2019-03-19T00:08:20.043Z,98196.94
2019-03-19T00:10:49.645Z,98196.94
2019-03-19T00:13:19.887Z,98201.49
2019-03-19T00:15:49.525Z,98197.75
2019-03-19T00:18:19.262Z,98201.44
2019-03-19T00:20:49.047Z,98205.53
2019-03-19T00:23:18.701Z,98205.53
2019-03-19T00:25:48.563Z,98206.67
2019-03-19T00:28:18.336Z,98202.30
2019-03-19T00:30:48.415Z,98202.30
2019-03-19T00:33:18.095Z,98205.74
2019-03-19T00:35:47.625Z,98205.74
2019-03-19T00:38:17.153Z,98217.36
2019-03-19T00:40:46.693Z,98217.36
2019-03-19T00:43:16.651Z,98217.91
2019-03-19T00:45:46.276Z,98203.56
2019-03-19T00:48:15.856Z,98212.34
2019-03-19T00:50:45.861Z,98212.34
2019-03-19T00:53:16.533Z,98216.25
2019-03-19T00:55:46.241Z,98229.19
2019-03-19T00:58:16.534Z,98226.20
2019-03-19T01:00:46.252Z,98226.20
2019-03-19T01:03:15.945Z,98229.27
2019-03-19T01:05:45.790Z,98215.97
2019-03-19T01:08:16.139Z,98215.97
2019-03-19T01:10:45.955Z,98223.80
2019-03-19T01:13:15.737Z,98235.00
2019-03-19T01:15:45.735Z,98232.84
2019-03-19T01:18:15.999Z,98242.30
2019-03-19T01:20:45.788Z,98242.30
2019-03-19T01:23:15.525Z,98246.13
2019-03-19T01:25:55.268Z,98244.80
2019-03-19T01:28:16.719Z,98250.13
2019-03-19T01:30:46.486Z,98240.94
2019-03-19T01:33:16.773Z,98239.87
2019-03-19T01:35:46.423Z,98241.34
2019-03-19T01:38:16.246Z,98239.91
2019-03-19T01:40:45.910Z,98239.91
2019-03-19T01:43:15.467Z,98245.37
2019-03-19T01:45:45.229Z,98246.48
2019-03-19T01:48:15.701Z,98256.96
2019-03-19T01:50:45.199Z,98256.96
2019-03-19T01:53:15.096Z,98259.97
2019-03-19T01:55:45.002Z,98263.47
2019-03-19T01:58:14.629Z,98259.39
2019-03-19T02:00:44.406Z,98257.98
2019-03-19T02:03:14.063Z,98263.77
2019-03-19T02:05:44.107Z,98266.97
2019-03-19T02:08:14.298Z,98268.14
2019-03-19T02:10:47.877Z,98265.66
2019-03-19T02:13:17.968Z,98254.75
2019-03-19T02:15:47.719Z,98258.95
2019-03-19T02:18:17.358Z,98258.95
2019-03-19T02:20:47.905Z,98262.81
2019-03-19T02:23:18.061Z,98260.24
2019-03-19T02:25:47.879Z,98260.24
2019-03-19T02:28:17.776Z,98260.81
2019-03-19T02:30:47.405Z,98260.16
2019-03-19T02:33:17.057Z,98267.62
2019-03-19T02:35:47.367Z,98275.04
2019-03-19T02:38:16.994Z,98279.50
2019-03-19T02:40:46.758Z,98278.19
2019-03-19T02:43:16.630Z,98270.86
2019-03-19T02:45:46.293Z,98270.86
2019-03-19T02:48:16.096Z,98272.39
2019-03-19T02:50:45.858Z,98272.39
2019-03-19T02:53:15.467Z,98266.85
2019-03-19T02:55:45.935Z,98266.85
2019-03-19T02:58:16.211Z,98284.73
2019-03-19T03:00:46.059Z,98289.14
2019-03-19T03:03:15.992Z,98305.16
2019-03-19T03:05:46.083Z,98314.75
2019-03-19T03:08:15.754Z,98314.75
2019-03-19T03:10:45.917Z,98320.02
2019-03-19T03:13:15.698Z,98326.63
2019-03-19T03:15:45.623Z,98326.63
2019-03-19T03:18:15.266Z,98321.04
2019-03-19T03:20:45.056Z,98329.05
2019-03-19T03:23:15.259Z,98329.91
2019-03-19T03:25:45.006Z,98329.69
2019-03-19T03:28:14.701Z,98331.41
2019-03-19T03:30:44.661Z,98334.28
2019-03-19T03:33:14.934Z,98340.02
2019-03-19T03:35:44.917Z,98334.51
2019-03-19T03:38:14.742Z,98342.11
2019-03-19T03:40:44.532Z,98343.94
2019-03-19T03:43:14.230Z,98343.94
2019-03-19T03:45:44.648Z,98328.59
2019-03-19T03:48:14.561Z,98333.59
2019-03-19T03:50:44.656Z,98333.82
2019-03-19T03:53:14.432Z,98354.39
2019-03-19T03:55:44.737Z,98354.98
2019-03-19T03:58:15.211Z,98356.75
2019-03-19T04:00:44.884Z,98355.94
2019-03-19T04:03:14.502Z,98359.03
2019-03-19T04:05:46.929Z,98354.85
2019-03-19T04:08:16.987Z,98356.94
2019-03-19T04:10:46.911Z,98371.40
2019-03-19T04:13:16.700Z,98375.55
2019-03-19T04:15:46.492Z,98370.00
2019-03-19T04:18:16.463Z,98370.00
2019-03-19T04:20:46.560Z,98368.27
2019-03-19T04:23:16.432Z,98374.55
2019-03-19T04:25:46.182Z,98378.99
2019-03-19T04:28:16.389Z,98372.03
2019-03-19T04:30:46.563Z,98373.55
2019-03-19T04:33:16.889Z,98375.39
2019-03-19T04:35:47.155Z,98375.39
2019-03-19T04:38:16.950Z,98376.80
2019-03-19T04:40:55.959Z,98379.13
2019-03-19T04:43:25.830Z,98383.41
2019-03-19T04:45:55.673Z,98375.39
2019-03-19T04:48:25.929Z,98385.48
2019-03-19T04:50:56.137Z,98390.05
2019-03-19T04:53:26.146Z,98391.00
2019-03-19T04:55:55.755Z,98388.86
2019-03-19T04:58:25.536Z,98388.86
2019-03-19T05:00:55.464Z,98391.36
2019-03-19T05:03:25.416Z,98389.19
2019-03-19T05:05:59.471Z,98389.08
2019-03-19T05:08:28.362Z,98397.52
2019-03-19T05:10:58.103Z,98403.89
2019-03-19T05:13:27.832Z,98403.89
2019-03-19T05:15:57.602Z,98403.53
2019-03-19T05:18:27.534Z,98412.31
2019-03-19T05:20:57.225Z,98417.52
2019-03-19T05:23:27.136Z,98419.36
2019-03-19T05:25:57.267Z,98419.36
2019-03-19T05:28:27.072Z,98423.30
2019-03-19T05:30:56.851Z,98420.17
2019-03-19T05:33:26.561Z,98416.77
2019-03-19T05:35:56.817Z,98419.91
2019-03-19T05:38:26.686Z,98419.91
2019-03-19T05:40:58.806Z,98415.20
2019-03-19T05:43:32.107Z,98415.20
2019-03-19T05:46:02.499Z,98421.95
2019-03-19T05:48:32.217Z,98424.37
2019-03-19T05:51:02.776Z,98429.81
2019-03-19T05:53:32.647Z,98423.95
2019-03-19T05:56:02.663Z,98430.55
2019-03-19T05:58:32.557Z,98430.55
2019-03-19T06:01:03.134Z,98431.49
2019-03-19T06:03:33.075Z,98437.72
2019-03-19T06:06:02.859Z,98438.78
2019-03-19T06:08:32.767Z,98441.78
2019-03-19T06:11:02.839Z,98441.78
2019-03-19T06:13:32.881Z,98442.53
2019-03-19T06:16:03.996Z,98442.53
2019-03-19T06:18:35.677Z,98455.86
2019-03-19T06:21:05.629Z,98460.55
2019-03-19T06:23:35.585Z,98459.19
2019-03-19T06:26:05.235Z,98459.19
2019-03-19T06:28:35.705Z,98466.80
2019-03-19T06:31:06.146Z,98464.89
2019-03-19T06:33:36.161Z,98472.62
2019-03-19T06:36:05.924Z,98472.67
2019-03-19T06:38:35.687Z,98472.67
2019-03-19T06:41:07.429Z,98472.59
2019-03-19T06:43:37.767Z,98472.59
2019-03-19T06:46:07.666Z,98474.23
2019-03-19T06:48:38.115Z,98474.23
2019-03-19T06:51:08.160Z,98486.52
2019-03-19T06:53:37.792Z,98486.52
2019-03-19T06:56:08.049Z,98486.90
2019-03-19T06:58:38.213Z,98491.17
2019-03-19T07:01:07.912Z,98493.22
2019-03-19T07:03:38.764Z,98492.16
2019-03-19T07:06:09.040Z,98494.91
2019-03-19T07:08:39.149Z,98500.70
2019-03-19T07:11:11.821Z,98511.73
2019-03-19T07:13:42.500Z,98508.46
2019-03-19T07:16:12.451Z,98508.46
2019-03-19T07:18:43.746Z,98510.95
2019-03-19T07:21:14.393Z,98510.95
2019-03-19T07:23:44.264Z,98516.27
2019-03-19T07:26:14.236Z,98516.27
2019-03-19T07:28:44.345Z,98523.69
2019-03-19T07:31:14.180Z,98531.27
2019-03-19T07:33:43.853Z,98531.57
2019-03-19T07:36:13.587Z,98528.72
2019-03-19T07:38:43.249Z,98538.09
2019-03-19T07:41:13.445Z,98537.87
2019-03-19T07:43:43.641Z,98539.79
2019-03-19T07:46:13.730Z,98538.00
2019-03-19T07:48:43.583Z,98540.71
2019-03-19T07:51:13.274Z,98536.72
2019-03-19T07:53:46.089Z,98534.30
2019-03-19T07:56:15.860Z,98534.30
2019-03-19T07:58:45.855Z,98530.17
2019-03-19T08:01:16.428Z,98530.17
2019-03-19T08:03:46.760Z,98536.52
2019-03-19T08:06:16.600Z,98530.42
2019-03-19T08:08:47.083Z,98538.15
2019-03-19T08:11:17.560Z,98535.66
2019-03-19T08:13:47.685Z,98535.66
2019-03-19T08:16:27.068Z,98540.16
2019-03-19T08:18:49.651Z,98541.31
2019-03-19T08:21:22.650Z,98545.14
2019-03-19T08:23:52.989Z,98542.30
2019-03-19T08:26:23.140Z,98537.20
2019-03-19T08:28:55.559Z,98537.20
2019-03-19T08:31:24.654Z,98537.56
2019-03-19T08:33:54.625Z,98541.26
2019-03-19T08:36:24.426Z,98545.88
2019-03-19T08:38:54.493Z,98546.81
2019-03-19T08:41:24.365Z,98550.71
2019-03-19T08:43:54.223Z,98551.23
2019-03-19T08:46:23.955Z,98551.41
2019-03-19T08:48:53.872Z,98557.66
2019-03-19T08:51:23.993Z,98558.58
2019-03-19T08:53:53.734Z,98556.81
2019-03-19T08:56:23.746Z,98563.84
2019-03-19T08:58:54.026Z,98566.58
2019-03-19T09:01:24.036Z,98566.58
2019-03-19T09:03:54.159Z,98572.34
2019-03-19T09:06:24.017Z,98572.34
2019-03-19T09:08:53.835Z,98570.87
2019-03-19T09:11:23.927Z,98570.87
2019-03-19T09:13:54.112Z,98571.66
2019-03-19T09:16:24.132Z,98573.21
2019-03-19T09:18:53.844Z,98576.98
2019-03-19T09:21:24.263Z,98581.42
2019-03-19T09:23:54.104Z,98585.25
2019-03-19T09:26:24.251Z,98585.25
2019-03-19T09:28:54.537Z,98587.44
2019-03-19T09:31:24.519Z,98584.31
2019-03-19T09:33:59.833Z,98591.90
2019-03-19T09:36:30.103Z,98582.38
2019-03-19T09:39:00.710Z,98586.38
2019-03-19T09:41:30.297Z,98592.00
2019-03-19T09:44:01.367Z,98586.64
2019-03-19T09:46:30.964Z,98591.98
2019-03-19T09:49:00.890Z,98590.80
2019-03-19T09:51:30.498Z,98592.07
2019-03-19T09:54:00.471Z,98591.87
2019-03-19T09:56:30.352Z,98593.36
2019-03-19T09:59:00.287Z,98598.53
2019-03-19T10:01:30.349Z,98594.59
2019-03-19T10:04:00.105Z,98591.77
2019-03-19T10:06:30.050Z,98597.30
2019-03-19T10:09:00.089Z,98594.83
2019-03-19T10:11:30.019Z,98586.47
2019-03-19T10:14:00.367Z,98586.47
2019-03-19T10:16:29.978Z,98590.20
2019-03-19T10:19:02.683Z,98604.88
2019-03-19T10:21:32.430Z,98604.88
2019-03-19T10:24:02.827Z,98605.31
2019-03-19T10:26:32.852Z,98605.31
2019-03-19T10:29:03.625Z,98608.58
2019-03-19T10:31:33.196Z,98604.09
2019-03-19T10:34:03.182Z,98604.09
2019-03-19T10:36:32.682Z,98599.61
2019-03-19T10:39:04.371Z,98599.61
2019-03-19T10:41:34.106Z,98603.12
2019-03-19T10:44:03.684Z,98611.89
2019-03-19T10:46:33.653Z,98613.95
2019-03-19T10:49:03.403Z,98618.66
2019-03-19T10:51:35.162Z,98617.69
2019-03-19T10:54:05.195Z,98617.69
2019-03-19T10:56:34.990Z,98615.28
2019-03-19T10:59:04.739Z,98605.56
2019-03-19T11:01:36.068Z,98616.50
2019-03-19T11:04:07.214Z,98616.50
2019-03-19T11:06:38.421Z,98614.92
2019-03-19T11:09:09.103Z,98609.36
2019-03-19T11:11:39.715Z,98617.71
2019-03-19T11:14:09.623Z,98619.00
2019-03-19T11:16:40.014Z,98628.56
2019-03-19T11:19:09.996Z,98628.56
2019-03-19T11:21:40.051Z,98626.17
2019-03-19T11:24:10.717Z,98630.92
2019-03-19T11:26:40.395Z,98625.36
2019-03-19T11:29:13.134Z,98625.36
2019-03-19T11:31:42.615Z,98624.97
2019-03-19T11:34:12.647Z,98615.50
2019-03-19T11:36:43.098Z,98621.50
2019-03-19T11:39:13.016Z,98621.50
2019-03-19T11:41:42.714Z,98613.66
2019-03-19T11:44:12.607Z,98623.20
2019-03-19T11:46:42.981Z,98610.16
2019-03-19T11:49:16.180Z,98610.16
2019-03-19T11:51:45.677Z,98613.42
2019-03-19T11:54:18.005Z,98613.42
2019-03-19T11:56:47.749Z,98618.50
2019-03-19T11:59:19.053Z,98618.50
2019-03-19T12:01:49.354Z,98610.62
2019-03-19T12:04:19.148Z,98610.62
2019-03-19T12:06:49.081Z,98616.77
2019-03-19T12:09:19.247Z,98616.45
2019-03-19T12:14:34.361Z,98597.56
2019-03-19T12:17:08.072Z,98597.56
2019-03-19T12:19:38.090Z,98607.09
2019-03-19T12:22:07.640Z,98612.73
2019-03-19T12:24:37.280Z,98611.02
2019-03-19T12:27:07.140Z,98603.95
2019-03-19T12:29:38.916Z,98603.95
2019-03-19T12:32:08.638Z,98599.30
2019-03-19T12:34:39.759Z,98599.30
2019-03-19T12:37:09.401Z,98598.52
2019-03-19T12:39:40.001Z,98598.52
2019-03-19T12:42:13.117Z,98589.09
2019-03-19T12:44:43.307Z,98578.94
2019-03-19T12:47:13.498Z,98578.94
2019-03-19T12:49:44.426Z,98581.59
2019-03-19T12:52:17.024Z,98581.59
2019-03-19T12:54:47.081Z,98588.88
2019-03-19T12:57:16.826Z,98582.47
2019-03-19T12:59:47.092Z,98582.72
2019-03-19T13:02:17.031Z,98585.44
2019-03-19T13:04:48.212Z,98587.75
2019-03-19T13:07:18.189Z,98587.75
2019-03-19T13:09:48.543Z,98588.88
2019-03-19T13:12:22.094Z,98587.72
2019-03-19T13:14:55.112Z,98600.19
2019-03-19T13:17:25.133Z,98600.19
2019-03-19T13:19:55.265Z,98592.88
2019-03-19T13:22:24.964Z,98594.85
2019-03-19T13:24:54.881Z,98588.54
2019-03-19T13:27:24.644Z,98583.97
2019-03-19T13:29:54.241Z,98596.81
2019-03-19T13:32:24.371Z,98592.52
2019-03-19T13:34:58.310Z,98592.52
2019-03-19T13:37:27.526Z,98587.73
2019-03-19T13:39:57.385Z,98599.09
2019-03-19T13:42:35.098Z,98599.09
2019-03-19T13:45:05.320Z,98602.73
2019-03-19T13:47:35.107Z,98605.81
2019-03-19T13:50:05.542Z,98605.81
2019-03-19T13:52:38.859Z,98604.51
2019-03-19T13:55:13.322Z,98603.17
2019-03-19T13:57:43.207Z,98603.08
2019-03-19T14:00:13.583Z,98603.08
2019-03-19T14:02:43.513Z,98608.45
2019-03-19T14:05:13.963Z,98612.77
2019-03-19T14:07:43.586Z,98616.72
2019-03-19T14:10:13.719Z,98612.43
2019-03-19T14:12:44.242Z,98612.43
2019-03-19T14:15:15.138Z,98616.31
2019-03-19T14:17:47.132Z,98611.63
2019-03-19T14:20:17.085Z,98616.36
2019-03-19T14:22:49.354Z,98609.42
2019-03-19T14:25:19.962Z,98614.45
2019-03-19T14:27:50.091Z,98614.36
2019-03-19T14:30:20.343Z,98614.36
2019-03-19T14:32:51.541Z,98614.27
2019-03-19T14:35:36.637Z,98615.09
2019-03-19T14:37:57.128Z,98615.09
2019-03-19T14:40:27.310Z,98613.64
2019-03-19T14:42:59.104Z,98613.64
2019-03-19T14:45:31.763Z,98612.81
2019-03-19T14:48:01.751Z,98608.64
2019-03-19T14:50:31.849Z,98609.70
2019-03-19T14:53:02.005Z,98616.97
2019-03-19T14:55:31.605Z,98611.29
2019-03-19T14:58:02.705Z,98612.97
2019-03-19T15:00:35.319Z,98612.97
2019-03-19T15:03:04.271Z,98625.22
2019-03-19T15:05:35.932Z,98619.00
2019-03-19T15:08:06.177Z,98620.52
2019-03-19T15:10:35.960Z,98620.52
2019-03-19T15:13:05.445Z,98620.86
2019-03-19T15:15:35.093Z,98629.36
2019-03-19T15:18:05.280Z,98629.36
2019-03-19T15:20:41.919Z,98619.80
2019-03-19T15:23:13.402Z,98619.80
2019-03-19T15:25:44.361Z,98620.09
2019-03-19T15:28:14.344Z,98618.95
2019-03-19T15:30:46.983Z,98611.27
2019-03-19T15:33:18.631Z,98608.56
2019-03-19T15:35:48.391Z,98610.54
2019-03-19T15:38:19.040Z,98606.80
2019-03-19T15:40:51.625Z,98601.16
2019-03-19T15:43:21.302Z,98601.16
2019-03-19T15:45:51.420Z,98604.55
2019-03-19T15:48:21.335Z,98603.34
2019-03-19T15:50:50.983Z,98606.27
2019-03-19T15:53:20.400Z,98615.79
2019-03-19T15:55:50.030Z,98609.84
2019-03-19T15:58:21.077Z,98608.52
2019-03-19T16:00:51.251Z,98610.64
2019-03-19T16:03:33.963Z,98610.64
2019-03-19T16:06:05.088Z,98610.41
2019-03-19T16:08:34.823Z,98614.67
2019-03-19T16:11:04.838Z,98615.08
2019-03-19T16:13:34.537Z,98614.83
2019-03-19T16:16:04.278Z,98614.83
2019-03-19T16:18:34.363Z,98618.02
2019-03-19T16:21:06.706Z,98617.33
2019-03-19T16:23:36.353Z,98622.95
2019-03-19T16:26:06.434Z,98629.13
2019-03-19T16:28:38.127Z,98629.13
2019-03-19T16:31:08.662Z,98634.97
2019-03-19T16:33:38.438Z,98634.56
2019-03-19T16:36:08.056Z,98637.08
2019-03-19T16:38:41.121Z,98637.08
2019-03-19T16:41:10.505Z,98640.80
2019-03-19T16:43:40.133Z,98639.39
2019-03-19T16:46:09.590Z,98639.39
2019-03-19T16:48:39.338Z,98639.39
2019-03-19T16:51:33.793Z,98645.73
2019-03-19T16:54:03.641Z,98653.00
2019-03-19T16:56:33.119Z,98653.00
2019-03-19T16:59:03.748Z,98651.39
2019-03-19T17:01:38.392Z,98654.73
2019-03-19T17:04:09.628Z,98654.73
2019-03-19T17:06:39.401Z,98665.34
2019-03-19T17:09:09.038Z,98665.34
2019-03-19T17:11:38.471Z,98674.87
2019-03-19T17:14:08.091Z,98671.25
2019-03-19T17:16:38.146Z,98671.25
2019-03-19T17:19:08.154Z,98678.80
2019-03-19T17:21:39.411Z,98682.92
2019-03-19T17:24:09.866Z,98682.92
2019-03-19T17:26:41.739Z,98691.86
2019-03-19T17:29:17.242Z,98693.19
2019-03-19T17:31:48.712Z,98695.30
2019-03-19T17:34:18.178Z,98695.30
2019-03-19T17:36:52.997Z,98702.28
2019-03-19T17:39:22.897Z,98706.20
2019-03-19T17:41:53.130Z,98707.41
2019-03-19T17:44:24.676Z,98704.61
2019-03-19T17:46:54.761Z,98702.95
2019-03-19T17:49:24.639Z,98703.27
2019-03-19T17:51:54.160Z,98710.19
2019-03-19T17:54:28.660Z,98717.60
2019-03-19T17:56:58.528Z,98716.19
2019-03-19T17:59:28.790Z,98716.19
2019-03-19T18:01:58.886Z,98723.39
2019-03-19T18:04:30.589Z,98719.14
2019-03-19T18:07:00.268Z,98723.01
2019-03-19T18:09:29.813Z,98727.75
2019-03-19T18:11:59.736Z,98723.55
2019-03-19T18:14:30.060Z,98727.21
2019-03-19T18:17:03.255Z,98728.55
2019-03-19T18:19:32.842Z,98731.69
2019-03-19T18:22:02.537Z,98735.88
2019-03-19T18:24:34.917Z,98737.17
2019-03-19T18:27:04.573Z,98737.17
2019-03-19T18:29:36.701Z,98743.66
2019-03-19T18:32:06.356Z,98751.45
2019-03-19T18:34:36.307Z,98745.13
2019-03-19T18:37:06.659Z,98743.63
2019-03-19T18:39:36.661Z,98743.63
2019-03-19T18:42:06.273Z,98747.81
2019-03-19T18:44:36.179Z,98749.22
2019-03-19T18:47:07.834Z,98750.86
2019-03-19T18:49:38.674Z,98750.86
2019-03-19T18:52:08.304Z,98761.63
2019-03-19T18:54:38.238Z,98761.63
2019-03-19T18:57:07.836Z,98758.48
2019-03-19T18:59:37.636Z,98764.84
2019-03-19T19:02:07.554Z,98764.84
2019-03-19T19:04:37.817Z,98768.83
2019-03-19T19:07:15.680Z,98768.83
2019-03-19T19:09:45.148Z,98772.71
2019-03-19T19:12:15.301Z,98773.09
2019-03-19T19:14:45.285Z,98776.67
2019-03-19T19:17:14.960Z,98782.30
2019-03-19T19:19:45.630Z,98786.70
2019-03-19T19:22:15.328Z,98786.70
2019-03-19T19:24:45.586Z,98795.96
2019-03-19T19:27:15.190Z,98796.85
2019-03-19T19:29:44.830Z,98804.11
2019-03-19T19:32:14.752Z,98804.08
2019-03-19T19:34:44.676Z,98801.66
2019-03-19T19:37:14.418Z,98801.66
2019-03-19T19:39:47.623Z,98807.91
2019-03-19T19:42:17.283Z,98807.91
2019-03-19T19:44:47.051Z,98820.20
2019-03-19T19:47:17.968Z,98820.30
2019-03-19T19:49:48.382Z,98828.75
2019-03-19T19:52:18.033Z,98833.56
2019-03-19T19:54:48.231Z,98833.56
2019-03-19T19:57:18.398Z,98833.18
2019-03-19T19:59:49.045Z,98833.64
2019-03-19T20:02:21.274Z,98841.78
2019-03-19T20:05:02.333Z,98844.39
2019-03-19T20:07:22.764Z,98843.92
2019-03-19T20:09:52.659Z,98843.92
2019-03-19T20:12:23.529Z,98844.40
2019-03-19T20:14:54.045Z,98844.40
2019-03-19T20:17:24.283Z,98843.94
2019-03-19T20:19:55.153Z,98847.00
2019-03-19T20:22:25.679Z,98847.00
2019-03-19T20:24:55.395Z,98842.70
2019-03-19T20:27:26.824Z,98854.84
2019-03-19T20:29:57.332Z,98854.84
2019-03-19T20:32:27.429Z,98861.89
2019-03-19T20:34:57.780Z,98861.89
2019-03-19T20:37:29.434Z,98857.66
2019-03-19T20:39:59.187Z,98863.83
2019-03-19T20:42:33.156Z,98865.41
2019-03-19T20:45:03.272Z,98871.57
2019-03-19T20:47:34.781Z,98876.95
2019-03-19T20:50:05.078Z,98876.95
2019-03-19T20:52:34.864Z,98880.00
2019-03-19T20:55:05.406Z,98877.44
2019-03-19T20:57:36.467Z,98877.44
2019-03-19T21:00:07.941Z,98887.41
2019-03-19T21:02:38.153Z,98887.41
2019-03-19T21:05:08.223Z,98876.80
2019-03-19T21:07:37.800Z,98876.80
